Azalia, Michigan
Current Conditions -  °F | °C
As of 5:16 AM on Monday 22 Dec 2014 (Local Time) from KTTF Reporting Station
Clear Clear  
Wind Chill: 28°   Ceiling: Unl
Heat Index: 28°   Visibility: 7mi
Dew Point: 27°   Wind: 3mph
Humidity: 93%   Direction: 100°E
Pressure: 30.09"   Gusts: NA
Location:  42.02°N, 83.67°W
Report Text: KTTF 221016Z AUTO 10003KT 7SM CLR M02/M03 A3009 RMK AO2
Loading
Personal Weather Stations






























Interactive Weather Map New forecast layout! Learn more

10-Day Weather Forecast

Advertisements
Track Severe Weather on mobile